Clemons, Iowa
Current Conditions -  °F | °C
As of 11:53 AM on Thursday 27 Nov 2014 (Local Time) from KMIW Reporting Station
Clear Clear  
Wind Chill: -8°   Ceiling: Unl
Heat Index:   Visibility: 10mi
Dew Point: -2°   Wind: 8mph
Humidity: 73%   Direction: 280°W
Pressure: 30.5"   Gusts: NA
Location:  42.11°N, 93.16°W
Report Text: KMIW 271753Z AUTO 28007KT 10SM CLR M15/M19 A3050 RMK AO2 SLP348 T11501189 11150 21183 50003
Loading
Personal Weather Stations






























Interactive Weather Map New forecast layout! Learn more

10-Day Weather Forecast

Advertisements
Track Severe Weather on mobile